Hafnia Hope — 9V3230 — position and weather

sailwx.info

Track history (hours):
 
Tides and Currents Weather Stations Pressure Air Temp Water Temp Dewpoint Dewpoint Depression Visibility Wind Speed Wind Dir Waves Ship Positions

Hafnia Hope

Last reported at 2017-Oct-19 11:44 UTC. Time now 2017-Oct-20 10:59 UTC.
Position N 40°00' E 023°09'.

Length 182 m; draft 7 m.

Type: Tanker. MMSI: 566015000.

Date/timePositionNaut miles runAvg speedWind from/ knotsBaromVisibWave heightAir tempDewpointWater temp
2017-Oct-19 11:44N 40°00' E 023°09'2312.8
2017-Oct-19 09:54N 39°48' E 023°35'513.7
2017-Oct-19 09:30N 39°47' E 023°42'713.8
2017-Oct-19 08:58N 39°45' E 023°51'714.0
2017-Oct-19 08:30N 39°42' E 023°59'713.8
2017-Oct-19 08:00N 39°38' E 024°07'713.7
2017-Oct-19 07:30N 39°35' E 024°15'813.6
2017-Oct-19 06:56N 39°30' E 024°23'2213.4
2017-Oct-19 05:15N 39°11' E 024°38'312.6
2017-Oct-19 05:00N 39°08' E 024°40'8510.7
2017-Oct-18 21:01N 37°45' E 024°16'013.2
2017-Oct-18 21:00N 37°45' E 024°16'1811.4
2017-Oct-18 19:23N 37°35' E 023°56'512.8
2017-Oct-18 19:01N 37°36' E 023°50'612.8
2017-Oct-18 18:30N 37°39' E 023°43'612.8
2017-Oct-18 18:00N 37°44' E 023°39'612.2
2017-Oct-18 17:31N 37°50' E 023°36'4 7.1
2017-Oct-18 17:00N 37°53' E 023°33'0 0.1
2017-Oct-18 16:30N 37°53' E 023°33'0 0.0
2017-Oct-18 16:00N 37°53' E 023°33'0 0.1
2017-Oct-18 15:30N 37°53' E 023°33'0 0.0
2017-Oct-18 15:00N 37°53' E 023°33'0 0.0
2017-Oct-18 14:00N 37°53' E 023°33'0 0.1
2017-Oct-18 13:30N 37°53' E 023°33'0 0.0
2017-Oct-18 13:00N 37°53' E 023°33'0 0.0
2017-Oct-18 12:30N 37°53' E 023°33'0 0.0
2017-Oct-18 12:00N 37°53' E 023°33'0 0.0
2017-Oct-18 11:30N 37°53' E 023°33'0 0.0
2017-Oct-18 11:00N 37°53' E 023°33'0 0.1
2017-Oct-18 10:30N 37°53' E 023°33'0 0.3
2017-Oct-18 10:00N 37°53' E 023°33'0 0.0
2017-Oct-18 08:24N 37°53' E 023°33'0 0.9
2017-Oct-18 08:00N 37°53' E 023°34'3 5.9
2017-Oct-18 07:30N 37°52' E 023°37'612.2
2017-Oct-18 07:00N 37°47' E 023°41'612.7
2017-Oct-18 06:30N 37°41' E 023°44'612.1
2017-Oct-18 06:00N 37°35' E 023°46'140 7.9
2017-Oct-17 12:11N 37°13' E 020°51'212.2
2017-Oct-17 12:00N 37°15' E 020°50'612.1
2017-Oct-17 11:30N 37°20' E 020°46'612.3
2017-Oct-17 11:00N 37°25' E 020°42'612.7
2017-Oct-17 10:30N 37°31' E 020°38'1012.6
2017-Oct-17 09:44N 37°40' E 020°32'312.7
2017-Oct-17 09:30N 37°42' E 020°30'613.0
2017-Oct-17 09:00N 37°48' E 020°26'612.7
2017-Oct-17 08:30N 37°53' E 020°22'712.9
2017-Oct-17 08:00N 37°59' E 020°18'2412.9
2017-Oct-17 06:06N 38°20' E 020°03'212.5
2017-Oct-17 05:59N 38°22' E 020°02'612.5
2017-Oct-17 05:30N 38°27' E 019°58'612.2
2017-Oct-17 05:00N 38°32' E 019°54'611.9
2017-Oct-17 04:30N 38°37' E 019°51'612.0
2017-Oct-17 04:00N 38°43' E 019°47'1012.2
2017-Oct-17 03:13N 38°51' E 019°42'312.3
2017-Oct-17 03:00N 38°53' E 019°40'612.4
2017-Oct-17 02:30N 38°59' E 019°36'612.5
2017-Oct-17 02:00N 39°05' E 019°33'612.3
2017-Oct-17 01:30N 39°10' E 019°29'612.2
2017-Oct-17 01:00N 39°15' E 019°25'612.1
2017-Oct-17 00:30N 39°20' E 019°21'612.0
2017-Oct-17 00:00N 39°25' E 019°17'612.0
2017-Oct-16 23:30N 39°31' E 019°13'612.1
2017-Oct-16 23:00N 39°36' E 019°09'612.1
2017-Oct-16 22:30N 39°41' E 019°05'612.4
2017-Oct-16 22:00N 39°47' E 019°02'612.2
2017-Oct-16 21:30N 39°52' E 018°58'612.4
2017-Oct-16 21:01N 39°58' E 018°54'612.5
2017-Oct-16 20:30N 40°03' E 018°50'612.4
2017-Oct-16 20:00N 40°08' E 018°46'613.0
2017-Oct-16 19:30N 40°14' E 018°42'713.1
2017-Oct-16 19:00N 40°20' E 018°38'612.6
2017-Oct-16 18:30N 40°25' E 018°32'612.6
2017-Oct-16 18:01N 40°29' E 018°27'612.3
2017-Oct-16 17:30N 40°33' E 018°20'612.3
2017-Oct-16 17:00N 40°37' E 018°14'612.8
2017-Oct-16 16:30N 40°42' E 018°08'612.6
2017-Oct-16 16:01N 40°47' E 018°04'612.4
2017-Oct-16 15:30N 40°51' E 017°58'612.6
2017-Oct-16 15:00N 40°56' E 017°52'912.7
2017-Oct-16 14:19N 41°02' E 017°44'16912.2
2017-Oct-16 00:30N 43°06' E 015°08'2012.2
2017-Oct-15 22:52N 43°22' E 014°52'712.2
2017-Oct-15 22:19N 43°27' E 014°46'412.1
2017-Oct-15 21:58N 43°30' E 014°42'1012.1
2017-Oct-15 21:10N 43°38' E 014°35'312.2
2017-Oct-15 20:56N 43°40' E 014°32'512.1
2017-Oct-15 20:30N 43°44' E 014°28'611.9
2017-Oct-15 20:00N 43°49' E 014°22'612.0
2017-Oct-15 19:30N 43°53' E 014°17'611.9
2017-Oct-15 19:00N 43°58' E 014°12'611.9
2017-Oct-15 18:30N 44°03' E 014°07'611.8
2017-Oct-15 18:00N 44°07' E 014°02'711.9
2017-Oct-15 17:25N 44°13' E 013°56'511.9
2017-Oct-15 16:59N 44°17' E 013°52'612.0
2017-Oct-15 16:30N 44°22' E 013°48'611.9
2017-Oct-15 16:00N 44°27' E 013°43'611.7
2017-Oct-15 15:30N 44°32' E 013°39'611.8
2017-Oct-15 15:00N 44°37' E 013°34'1211.9
2017-Oct-15 14:00N 44°47' E 013°25'611.9
2017-Oct-15 13:30N 44°52' E 013°20'611.7
2017-Oct-15 13:00N 44°57' E 013°16'611.8
2017-Oct-15 12:30N 45°02' E 013°11'611.9
2017-Oct-15 12:00N 45°07' E 013°07'611.8
2017-Oct-15 11:30N 45°12' E 013°04'611.9
2017-Oct-15 11:00N 45°18' E 013°02'611.5
2017-Oct-15 10:30N 45°24' E 013°02'611.9
2017-Oct-15 10:00N 45°29' E 013°07'611.7
2017-Oct-15 09:30N 45°32' E 013°14'612.0
2017-Oct-15 09:00N 45°34' E 013°21'612.0
2017-Oct-15 08:30N 45°37' E 013°29'510.7
2017-Oct-15 08:00N 45°37' E 013°37'611.3
2017-Oct-15 07:30N 45°34' E 013°43'1 1.8
2017-Oct-15 07:00N 45°34' E 013°44'0 0.0
2017-Oct-15 06:30N 45°34' E 013°44'0 0.0
2017-Oct-15 05:48N 45°34' E 013°44'0 0.0
2017-Oct-15 05:12N 45°34' E 013°44'0 0.0
2017-Oct-15 05:00N 45°34' E 013°44'0 0.0
2017-Oct-15 04:30N 45°34' E 013°44'0 0.0
2017-Oct-15 03:57N 45°34' E 013°44'0 0.0
2017-Oct-15 03:27N 45°34' E 013°44'0 0.0
2017-Oct-15 03:00N 45°34' E 013°44'0 0.0
2017-Oct-15 02:21N 45°34' E 013°44'0 0.0
2017-Oct-15 01:51N 45°34' E 013°44'0 0.0
2017-Oct-15 01:30N 45°34' E 013°44'0 0.0
2017-Oct-15 01:00N 45°34' E 013°44'0 0.0
2017-Oct-15 00:30N 45°34' E 013°44'0 0.0
2017-Oct-15 00:00N 45°34' E 013°44'0 0.0
2017-Oct-14 23:18N 45°34' E 013°44'0 0.0
2017-Oct-14 23:00N 45°34' E 013°44'0 0.0
2017-Oct-14 22:24N 45°34' E 013°44'0 0.0
2017-Oct-14 21:54N 45°34' E 013°44'0 0.0
2017-Oct-14 21:09N 45°34' E 013°44'0 0.0
2017-Oct-14 21:00N 45°34' E 013°44'0 0.0
2017-Oct-14 19:39N 45°34' E 013°44'0 0.0
2017-Oct-14 19:30N 45°34' E 013°44'0 0.0
2017-Oct-14 18:48N 45°34' E 013°44'0 0.0
2017-Oct-14 18:30N 45°34' E 013°44'0 0.0
2017-Oct-14 17:57N 45°34' E 013°44'0 0.0
2017-Oct-14 17:12N 45°34' E 013°44'0 0.0
2017-Oct-14 16:54N 45°34' E 013°44'0 0.0
2017-Oct-14 16:30N 45°34' E 013°44'0 0.0
2017-Oct-14 16:00N 45°34' E 013°44'0 0.0
2017-Oct-14 15:27N 45°34' E 013°44'0 0.0
2017-Oct-14 15:00N 45°34' E 013°44'0 0.0
2017-Oct-14 14:24N 45°34' E 013°44'0 0.0
2017-Oct-14 13:57N 45°34' E 013°44'0 0.0
2017-Oct-14 13:30N 45°34' E 013°44'0 0.0
2017-Oct-14 13:00N 45°34' E 013°44'0 0.0
2017-Oct-14 12:27N 45°34' E 013°44'0 0.0
2017-Oct-14 11:57N 45°34' E 013°44'0 0.0
2017-Oct-14 11:27N 45°34' E 013°44'0 0.0
2017-Oct-14 10:21N 45°34' E 013°44'0 0.0
2017-Oct-14 10:00N 45°34' E 013°44'0 0.0
2017-Oct-14 09:21N 45°34' E 013°44'0 0.0
2017-Oct-14 08:48N 45°34' E 013°44'0 0.0
2017-Oct-14 08:27N 45°34' E 013°44'0 0.0
2017-Oct-14 07:57N 45°34' E 013°44'0 0.0
2017-Oct-14 07:15N 45°34' E 013°44'0 0.0
2017-Oct-14 07:00N 45°34' E 013°44'0 0.0
2017-Oct-14 06:09N 45°34' E 013°44'0 0.0
2017-Oct-14 05:21N 45°34' E 013°44'0 0.0
2017-Oct-14 05:00N 45°34' E 013°44'0 0.0
2017-Oct-14 04:30N 45°34' E 013°44'0 0.0
2017-Oct-14 03:39N 45°34' E 013°44'0 0.0
2017-Oct-14 03:27N 45°34' E 013°44'0 0.0
2017-Oct-14 02:12N 45°34' E 013°44'0 0.0
2017-Oct-14 00:57N 45°34' E 013°44'0 0.0
2017-Oct-13 22:54N 45°34' E 013°44'0 0.0
2017-Oct-13 21:30N 45°34' E 013°44'0 0.0
2017-Oct-13 20:42N 45°34' E 013°44'0 0.0
2017-Oct-13 20:24N 45°34' E 013°44'0 0.0
2017-Oct-13 19:54N 45°34' E 013°44'0 0.0
2017-Oct-13 19:30N 45°34' E 013°44'0 0.0
2017-Oct-13 18:48N 45°34' E 013°44'0 0.0
2017-Oct-13 18:30N 45°34' E 013°44'0 0.0
2017-Oct-13 18:00N 45°34' E 013°44'0 0.0
2017-Oct-13 17:21N 45°34' E 013°44'0 0.0
2017-Oct-13 17:00N 45°34' E 013°44'0 0.0
2017-Oct-13 16:27N 45°34' E 013°44'0 0.2
2017-Oct-13 16:00N 45°34' E 013°44'2 3.6
2017-Oct-13 15:30N 45°34' E 013°41'1 1.9
2017-Oct-13 15:00N 45°34' E 013°40'0 0.3
2017-Oct-13 14:30N 45°34' E 013°40'3 5.3
2017-Oct-13 14:00N 45°34' E 013°37'510.5
2017-Oct-13 13:30N 45°33' E 013°29'611.8
2017-Oct-13 13:00N 45°30' E 013°22'611.9
2017-Oct-13 12:30N 45°27' E 013°15'510.7
2017-Oct-13 12:00N 45°22' E 013°11'611.8
2017-Oct-13 11:30N 45°16' E 013°12'611.7
2017-Oct-13 11:00N 45°11' E 013°13'612.0
2017-Oct-13 10:30N 45°05' E 013°15'612.0
2017-Oct-13 10:00N 44°59' E 013°19'612.1
2017-Oct-13 09:30N 44°54' E 013°24'611.9
2017-Oct-13 09:00N 44°49' E 013°28'611.9
2017-Oct-13 08:30N 44°44' E 013°33'612.0
2017-Oct-13 08:00N 44°40' E 013°38'612.1
2017-Oct-13 07:30N 44°35' E 013°43'611.9
2017-Oct-13 07:00N 44°30' E 013°47'612.0
2017-Oct-13 06:30N 44°24' E 013°51'611.9
2017-Oct-13 05:59N 44°19' E 013°56'611.9
2017-Oct-13 05:30N 44°14' E 014°01'1112.0
2017-Oct-13 04:35N 44°05' E 014°09'111.9
2017-Oct-13 04:30N 44°04' E 014°10'30211.9
2017-Oct-12 03:09N 40°21' E 018°45'512.0
2017-Oct-12 02:41N 40°16' E 018°45'2211.3
2017-Oct-12 00:43N 39°54' E 018°39'512.1
2017-Oct-12 00:20N 39°51' E 018°35'612.3
2017-Oct-11 23:52N 39°46' E 018°30'411.9
2017-Oct-11 23:30N 39°43' E 018°27'611.5
2017-Oct-11 23:00N 39°38' E 018°22'611.3
2017-Oct-11 22:30N 39°34' E 018°17'611.4
2017-Oct-11 22:01N 39°29' E 018°13'611.6
2017-Oct-11 21:30N 39°24' E 018°08'611.8
2017-Oct-11 20:59N 39°20' E 018°04'611.8
2017-Oct-11 20:30N 39°15' E 017°59'22911.2
2017-Oct-11 00:00N 36°39' E 014°27'612.8
2017-Oct-10 23:30N 36°40' E 014°19'613.1
2017-Oct-10 23:00N 36°43' E 014°12'713.5
2017-Oct-10 22:30N 36°46' E 014°04'713.4
2017-Oct-10 22:00N 36°49' E 013°57'713.2
2017-Oct-10 21:30N 36°53' E 013°50'713.0
2017-Oct-10 21:00N 36°56' E 013°43'612.9
2017-Oct-10 20:30N 36°60' E 013°36'25011.1
2017-Oct-09 21:56N 39°05' E 009°02'0 0.0
2017-Oct-09 21:29N 39°05' E 009°02'0 0.0
2017-Oct-09 20:59N 39°05' E 009°02'0 0.0
2017-Oct-09 20:29N 39°05' E 009°02'0 0.0
2017-Oct-09 19:59N 39°05' E 009°02'0 0.0
2017-Oct-09 19:29N 39°05' E 009°02'0 0.0
2017-Oct-09 18:59N 39°05' E 009°02'0 0.0
2017-Oct-09 18:29N 39°05' E 009°02'0 0.0
2017-Oct-09 17:59N 39°05' E 009°02'0 0.0
2017-Oct-09 17:29N 39°05' E 009°02'0 0.0
2017-Oct-09 16:59N 39°05' E 009°02'0 0.0
2017-Oct-09 16:29N 39°05' E 009°02'0 0.0
2017-Oct-09 15:59N 39°05' E 009°02'0 0.0
2017-Oct-09 15:29N 39°05' E 009°02'0 0.0
2017-Oct-09 14:59N 39°05' E 009°02'0 0.0
2017-Oct-09 14:29N 39°05' E 009°02'0 0.0
2017-Oct-09 13:59N 39°05' E 009°02'0 0.0
2017-Oct-09 13:29N 39°05' E 009°02'0 0.0
2017-Oct-09 12:59N 39°05' E 009°02'0 0.0
2017-Oct-09 12:29N 39°05' E 009°02'0 0.0
2017-Oct-09 11:59N 39°05' E 009°02'  
Track history (hours):
 
Tides and Currents Weather Stations Pressure Air Temp Water Temp Dewpoint Dewpoint Depression Visibility Wind Speed Wind Dir Waves Ship Positions

Hafnia Hope

Last reported at 2017-Oct-19 11:44 UTC. Time now 2017-Oct-20 10:59 UTC.
Position N 40°00' E 023°09'.

Length 182 m; draft 7 m.

Type: Tanker. MMSI: 566015000.

Date/timePositionNaut miles runAvg speedWind from/ knotsBaromVisibWave heightAir tempDewpointWater temp
2017-Oct-19 11:44N 40°00' E 023°09'2312.8
2017-Oct-19 09:54N 39°48' E 023°35'513.7
2017-Oct-19 09:30N 39°47' E 023°42'713.8
2017-Oct-19 08:58N 39°45' E 023°51'714.0
2017-Oct-19 08:30N 39°42' E 023°59'713.8
2017-Oct-19 08:00N 39°38' E 024°07'713.7
2017-Oct-19 07:30N 39°35' E 024°15'813.6
2017-Oct-19 06:56N 39°30' E 024°23'2213.4
2017-Oct-19 05:15N 39°11' E 024°38'312.6
2017-Oct-19 05:00N 39°08' E 024°40'8510.7
2017-Oct-18 21:01N 37°45' E 024°16'013.2
2017-Oct-18 21:00N 37°45' E 024°16'1811.4
2017-Oct-18 19:23N 37°35' E 023°56'512.8
2017-Oct-18 19:01N 37°36' E 023°50'612.8
2017-Oct-18 18:30N 37°39' E 023°43'612.8
2017-Oct-18 18:00N 37°44' E 023°39'612.2
2017-Oct-18 17:31N 37°50' E 023°36'4 7.1
2017-Oct-18 17:00N 37°53' E 023°33'0 0.1
2017-Oct-18 16:30N 37°53' E 023°33'0 0.0
2017-Oct-18 16:00N 37°53' E 023°33'0 0.1
2017-Oct-18 15:30N 37°53' E 023°33'0 0.0
2017-Oct-18 15:00N 37°53' E 023°33'0 0.0
2017-Oct-18 14:00N 37°53' E 023°33'0 0.1
2017-Oct-18 13:30N 37°53' E 023°33'0 0.0
2017-Oct-18 13:00N 37°53' E 023°33'0 0.0
2017-Oct-18 12:30N 37°53' E 023°33'0 0.0
2017-Oct-18 12:00N 37°53' E 023°33'0 0.0
2017-Oct-18 11:30N 37°53' E 023°33'0 0.0
2017-Oct-18 11:00N 37°53' E 023°33'0 0.1
2017-Oct-18 10:30N 37°53' E 023°33'0 0.3
2017-Oct-18 10:00N 37°53' E 023°33'0 0.0
2017-Oct-18 08:24N 37°53' E 023°33'0 0.9
2017-Oct-18 08:00N 37°53' E 023°34'3 5.9
2017-Oct-18 07:30N 37°52' E 023°37'612.2
2017-Oct-18 07:00N 37°47' E 023°41'612.7
2017-Oct-18 06:30N 37°41' E 023°44'612.1
2017-Oct-18 06:00N 37°35' E 023°46'140 7.9
2017-Oct-17 12:11N 37°13' E 020°51'212.2
2017-Oct-17 12:00N 37°15' E 020°50'612.1
2017-Oct-17 11:30N 37°20' E 020°46'612.3
2017-Oct-17 11:00N 37°25' E 020°42'612.7
2017-Oct-17 10:30N 37°31' E 020°38'1012.6
2017-Oct-17 09:44N 37°40' E 020°32'312.7
2017-Oct-17 09:30N 37°42' E 020°30'613.0
2017-Oct-17 09:00N 37°48' E 020°26'612.7
2017-Oct-17 08:30N 37°53' E 020°22'712.9
2017-Oct-17 08:00N 37°59' E 020°18'2412.9
2017-Oct-17 06:06N 38°20' E 020°03'212.5
2017-Oct-17 05:59N 38°22' E 020°02'612.5
2017-Oct-17 05:30N 38°27' E 019°58'612.2
2017-Oct-17 05:00N 38°32' E 019°54'611.9
2017-Oct-17 04:30N 38°37' E 019°51'612.0
2017-Oct-17 04:00N 38°43' E 019°47'1012.2
2017-Oct-17 03:13N 38°51' E 019°42'312.3
2017-Oct-17 03:00N 38°53' E 019°40'612.4
2017-Oct-17 02:30N 38°59' E 019°36'612.5
2017-Oct-17 02:00N 39°05' E 019°33'612.3
2017-Oct-17 01:30N 39°10' E 019°29'612.2
2017-Oct-17 01:00N 39°15' E 019°25'612.1
2017-Oct-17 00:30N 39°20' E 019°21'612.0
2017-Oct-17 00:00N 39°25' E 019°17'612.0
2017-Oct-16 23:30N 39°31' E 019°13'612.1
2017-Oct-16 23:00N 39°36' E 019°09'612.1
2017-Oct-16 22:30N 39°41' E 019°05'612.4
2017-Oct-16 22:00N 39°47' E 019°02'612.2
2017-Oct-16 21:30N 39°52' E 018°58'612.4
2017-Oct-16 21:01N 39°58' E 018°54'612.5
2017-Oct-16 20:30N 40°03' E 018°50'612.4
2017-Oct-16 20:00N 40°08' E 018°46'613.0
2017-Oct-16 19:30N 40°14' E 018°42'713.1
2017-Oct-16 19:00N 40°20' E 018°38'612.6
2017-Oct-16 18:30N 40°25' E 018°32'612.6
2017-Oct-16 18:01N 40°29' E 018°27'612.3
2017-Oct-16 17:30N 40°33' E 018°20'612.3
2017-Oct-16 17:00N 40°37' E 018°14'612.8
2017-Oct-16 16:30N 40°42' E 018°08'612.6
2017-Oct-16 16:01N 40°47' E 018°04'612.4
2017-Oct-16 15:30N 40°51' E 017°58'612.6
2017-Oct-16 15:00N 40°56' E 017°52'912.7
2017-Oct-16 14:19N 41°02' E 017°44'16912.2
2017-Oct-16 00:30N 43°06' E 015°08'2012.2
2017-Oct-15 22:52N 43°22' E 014°52'712.2
2017-Oct-15 22:19N 43°27' E 014°46'412.1
2017-Oct-15 21:58N 43°30' E 014°42'1012.1
2017-Oct-15 21:10N 43°38' E 014°35'312.2
2017-Oct-15 20:56N 43°40' E 014°32'512.1
2017-Oct-15 20:30N 43°44' E 014°28'611.9
2017-Oct-15 20:00N 43°49' E 014°22'612.0
2017-Oct-15 19:30N 43°53' E 014°17'611.9
2017-Oct-15 19:00N 43°58' E 014°12'611.9
2017-Oct-15 18:30N 44°03' E 014°07'611.8
2017-Oct-15 18:00N 44°07' E 014°02'711.9
2017-Oct-15 17:25N 44°13' E 013°56'511.9
2017-Oct-15 16:59N 44°17' E 013°52'612.0
2017-Oct-15 16:30N 44°22' E 013°48'611.9
2017-Oct-15 16:00N 44°27' E 013°43'611.7
2017-Oct-15 15:30N 44°32' E 013°39'611.8
2017-Oct-15 15:00N 44°37' E 013°34'1211.9
2017-Oct-15 14:00N 44°47' E 013°25'611.9
2017-Oct-15 13:30N 44°52' E 013°20'611.7
2017-Oct-15 13:00N 44°57' E 013°16'611.8
2017-Oct-15 12:30N 45°02' E 013°11'611.9
2017-Oct-15 12:00N 45°07' E 013°07'611.8
2017-Oct-15 11:30N 45°12' E 013°04'611.9
2017-Oct-15 11:00N 45°18' E 013°02'611.5
2017-Oct-15 10:30N 45°24' E 013°02'611.9
2017-Oct-15 10:00N 45°29' E 013°07'611.7
2017-Oct-15 09:30N 45°32' E 013°14'612.0
2017-Oct-15 09:00N 45°34' E 013°21'612.0
2017-Oct-15 08:30N 45°37' E 013°29'510.7
2017-Oct-15 08:00N 45°37' E 013°37'611.3
2017-Oct-15 07:30N 45°34' E 013°43'1 1.8
2017-Oct-15 07:00N 45°34' E 013°44'0 0.0
2017-Oct-15 06:30N 45°34' E 013°44'0 0.0
2017-Oct-15 05:48N 45°34' E 013°44'0 0.0
2017-Oct-15 05:12N 45°34' E 013°44'0 0.0
2017-Oct-15 05:00N 45°34' E 013°44'0 0.0
2017-Oct-15 04:30N 45°34' E 013°44'0 0.0
2017-Oct-15 03:57N 45°34' E 013°44'0 0.0
2017-Oct-15 03:27N 45°34' E 013°44'0 0.0
2017-Oct-15 03:00N 45°34' E 013°44'0 0.0
2017-Oct-15 02:21N 45°34' E 013°44'0 0.0
2017-Oct-15 01:51N 45°34' E 013°44'0 0.0
2017-Oct-15 01:30N 45°34' E 013°44'0 0.0
2017-Oct-15 01:00N 45°34' E 013°44'0 0.0
2017-Oct-15 00:30N 45°34' E 013°44'0 0.0
2017-Oct-15 00:00N 45°34' E 013°44'0 0.0
2017-Oct-14 23:18N 45°34' E 013°44'0 0.0
2017-Oct-14 23:00N 45°34' E 013°44'0 0.0
2017-Oct-14 22:24N 45°34' E 013°44'0 0.0
2017-Oct-14 21:54N 45°34' E 013°44'0 0.0
2017-Oct-14 21:09N 45°34' E 013°44'0 0.0
2017-Oct-14 21:00N 45°34' E 013°44'0 0.0
2017-Oct-14 19:39N 45°34' E 013°44'0 0.0
2017-Oct-14 19:30N 45°34' E 013°44'0 0.0
2017-Oct-14 18:48N 45°34' E 013°44'0 0.0
2017-Oct-14 18:30N 45°34' E 013°44'0 0.0
2017-Oct-14 17:57N 45°34' E 013°44'0 0.0
2017-Oct-14 17:12N 45°34' E 013°44'0 0.0
2017-Oct-14 16:54N 45°34' E 013°44'0 0.0
2017-Oct-14 16:30N 45°34' E 013°44'0 0.0
2017-Oct-14 16:00N 45°34' E 013°44'0 0.0
2017-Oct-14 15:27N 45°34' E 013°44'0 0.0
2017-Oct-14 15:00N 45°34' E 013°44'0 0.0
2017-Oct-14 14:24N 45°34' E 013°44'0 0.0
2017-Oct-14 13:57N 45°34' E 013°44'0 0.0
2017-Oct-14 13:30N 45°34' E 013°44'0 0.0
2017-Oct-14 13:00N 45°34' E 013°44'0 0.0
2017-Oct-14 12:27N 45°34' E 013°44'0 0.0
2017-Oct-14 11:57N 45°34' E 013°44'0 0.0
2017-Oct-14 11:27N 45°34' E 013°44'0 0.0
2017-Oct-14 10:21N 45°34' E 013°44'0 0.0
2017-Oct-14 10:00N 45°34' E 013°44'0 0.0
2017-Oct-14 09:21N 45°34' E 013°44'0 0.0
2017-Oct-14 08:48N 45°34' E 013°44'0 0.0
2017-Oct-14 08:27N 45°34' E 013°44'0 0.0
2017-Oct-14 07:57N 45°34' E 013°44'0 0.0
2017-Oct-14 07:15N 45°34' E 013°44'0 0.0
2017-Oct-14 07:00N 45°34' E 013°44'0 0.0
2017-Oct-14 06:09N 45°34' E 013°44'0 0.0
2017-Oct-14 05:21N 45°34' E 013°44'0 0.0
2017-Oct-14 05:00N 45°34' E 013°44'0 0.0
2017-Oct-14 04:30N 45°34' E 013°44'0 0.0
2017-Oct-14 03:39N 45°34' E 013°44'0 0.0
2017-Oct-14 03:27N 45°34' E 013°44'0 0.0
2017-Oct-14 02:12N 45°34' E 013°44'0 0.0
2017-Oct-14 00:57N 45°34' E 013°44'0 0.0
2017-Oct-13 22:54N 45°34' E 013°44'0 0.0
2017-Oct-13 21:30N 45°34' E 013°44'0 0.0
2017-Oct-13 20:42N 45°34' E 013°44'0 0.0
2017-Oct-13 20:24N 45°34' E 013°44'0 0.0
2017-Oct-13 19:54N 45°34' E 013°44'0 0.0
2017-Oct-13 19:30N 45°34' E 013°44'0 0.0
2017-Oct-13 18:48N 45°34' E 013°44'0 0.0
2017-Oct-13 18:30N 45°34' E 013°44'0 0.0
2017-Oct-13 18:00N 45°34' E 013°44'0 0.0
2017-Oct-13 17:21N 45°34' E 013°44'0 0.0
2017-Oct-13 17:00N 45°34' E 013°44'0 0.0
2017-Oct-13 16:27N 45°34' E 013°44'0 0.2
2017-Oct-13 16:00N 45°34' E 013°44'2 3.6
2017-Oct-13 15:30N 45°34' E 013°41'1 1.9
2017-Oct-13 15:00N 45°34' E 013°40'0 0.3
2017-Oct-13 14:30N 45°34' E 013°40'3 5.3
2017-Oct-13 14:00N 45°34' E 013°37'510.5
2017-Oct-13 13:30N 45°33' E 013°29'611.8
2017-Oct-13 13:00N 45°30' E 013°22'611.9
2017-Oct-13 12:30N 45°27' E 013°15'510.7
2017-Oct-13 12:00N 45°22' E 013°11'611.8
2017-Oct-13 11:30N 45°16' E 013°12'611.7
2017-Oct-13 11:00N 45°11' E 013°13'612.0
2017-Oct-13 10:30N 45°05' E 013°15'612.0
2017-Oct-13 10:00N 44°59' E 013°19'612.1
2017-Oct-13 09:30N 44°54' E 013°24'611.9
2017-Oct-13 09:00N 44°49' E 013°28'611.9
2017-Oct-13 08:30N 44°44' E 013°33'612.0
2017-Oct-13 08:00N 44°40' E 013°38'612.1
2017-Oct-13 07:30N 44°35' E 013°43'611.9
2017-Oct-13 07:00N 44°30' E 013°47'612.0
2017-Oct-13 06:30N 44°24' E 013°51'611.9
2017-Oct-13 05:59N 44°19' E 013°56'611.9
2017-Oct-13 05:30N 44°14' E 014°01'1112.0
2017-Oct-13 04:35N 44°05' E 014°09'111.9
2017-Oct-13 04:30N 44°04' E 014°10'30211.9
2017-Oct-12 03:09N 40°21' E 018°45'512.0
2017-Oct-12 02:41N 40°16' E 018°45'2211.3
2017-Oct-12 00:43N 39°54' E 018°39'512.1
2017-Oct-12 00:20N 39°51' E 018°35'612.3
2017-Oct-11 23:52N 39°46' E 018°30'411.9
2017-Oct-11 23:30N 39°43' E 018°27'611.5
2017-Oct-11 23:00N 39°38' E 018°22'611.3
2017-Oct-11 22:30N 39°34' E 018°17'611.4
2017-Oct-11 22:01N 39°29' E 018°13'611.6
2017-Oct-11 21:30N 39°24' E 018°08'611.8
2017-Oct-11 20:59N 39°20' E 018°04'611.8
2017-Oct-11 20:30N 39°15' E 017°59'22911.2
2017-Oct-11 00:00N 36°39' E 014°27'612.8
2017-Oct-10 23:30N 36°40' E 014°19'613.1
2017-Oct-10 23:00N 36°43' E 014°12'713.5
2017-Oct-10 22:30N 36°46' E 014°04'713.4
2017-Oct-10 22:00N 36°49' E 013°57'713.2
2017-Oct-10 21:30N 36°53' E 013°50'713.0
2017-Oct-10 21:00N 36°56' E 013°43'612.9
2017-Oct-10 20:30N 36°60' E 013°36'25011.1
2017-Oct-09 21:56N 39°05' E 009°02'0 0.0
2017-Oct-09 21:29N 39°05' E 009°02'0 0.0
2017-Oct-09 20:59N 39°05' E 009°02'0 0.0
2017-Oct-09 20:29N 39°05' E 009°02'0 0.0
2017-Oct-09 19:59N 39°05' E 009°02'0 0.0
2017-Oct-09 19:29N 39°05' E 009°02'0 0.0
2017-Oct-09 18:59N 39°05' E 009°02'0 0.0
2017-Oct-09 18:29N 39°05' E 009°02'0 0.0
2017-Oct-09 17:59N 39°05' E 009°02'0 0.0
2017-Oct-09 17:29N 39°05' E 009°02'0 0.0
2017-Oct-09 16:59N 39°05' E 009°02'0 0.0
2017-Oct-09 16:29N 39°05' E 009°02'0 0.0
2017-Oct-09 15:59N 39°05' E 009°02'0 0.0
2017-Oct-09 15:29N 39°05' E 009°02'0 0.0
2017-Oct-09 14:59N 39°05' E 009°02'0 0.0
2017-Oct-09 14:29N 39°05' E 009°02'0 0.0
2017-Oct-09 13:59N 39°05' E 009°02'0 0.0
2017-Oct-09 13:29N 39°05' E 009°02'0 0.0
2017-Oct-09 12:59N 39°05' E 009°02'0 0.0
2017-Oct-09 12:29N 39°05' E 009°02'0 0.0
2017-Oct-09 11:59N 39°05' E 009°02'  

Dump ship's entire track history